Time;durP1;ratioP1;P1;durP2;ratioP2;P2;SDS_P1;SDS_P2;PMS_P1;PMS_P2;Temp;Humidity;BMP_temperature;BMP_pressure;BME280_temperature;BME280_humidity;BME280_pressure;Samples;Min_cycle;Max_cycle;Signal;HPM_P1;HPM_P2
2022/06/10 00:00:45;;;;;;;25.20;11.70;;;;;;;;;;5034698;28;20024;-69
2022/06/10 00:03:11;;;;;;;24.03;11.97;;;;;;;;;;5035591;28;20032;-69
2022/06/10 00:05:37;;;;;;;19.87;11.53;;;;;;;;;;5041365;28;20385;-70
2022/06/10 00:08:07;;;;;;;23.70;11.13;;;;;;;;;;5042710;28;20025;-69
2022/06/10 00:10:33;;;;;;;23.80;11.57;;;;;;;;;;5032370;28;20025;-69
2022/06/10 00:12:58;;;;;;;23.30;11.77;;;;;;;;;;5042439;28;20036;-69
2022/06/10 00:15:23;;;;;;;19.63;10.97;;;;;;;;;;5043327;28;20017;-70
2022/06/10 00:17:49;;;;;;;21.63;11.43;;;;;;;;;;5044514;28;20020;-70
2022/06/10 00:20:16;;;;;;;23.47;12.93;;;;;;;;;;5048173;28;20029;-70
2022/06/10 00:22:42;;;;;;;22.73;12.03;;;;;;;;;;5040282;28;20020;-70
2022/06/10 00:25:07;;;;;;;20.93;12.00;;;;;;;;;;5036869;28;20025;-70
2022/06/10 00:27:33;;;;;;;21.73;11.47;;;;;;;;;;5043189;28;20023;-69
2022/06/10 00:29:58;;;;;;;19.93;10.73;;;;;;;;;;5036229;28;20086;-69
2022/06/10 00:32:23;;;;;;;23.37;11.63;;;;;;;;;;5042544;28;20021;-70
2022/06/10 00:34:48;;;;;;;18.90;11.23;;;;;;;;;;5043545;28;20032;-70
2022/06/10 00:37:14;;;;;;;23.00;11.00;;;;;;;;;;5042427;28;20120;-70
2022/06/10 00:39:39;;;;;;;19.83;10.37;;;;;;;;;;5045150;28;20036;-70
2022/06/10 00:42:05;;;;;;;18.47;10.50;;;;;;;;;;5044428;28;20032;-70
2022/06/10 00:44:30;;;;;;;18.73;11.37;;;;;;;;;;5036543;28;20021;-70
2022/06/10 00:46:56;;;;;;;21.90;11.63;;;;;;;;;;5036959;28;20074;-69
2022/06/10 00:49:21;;;;;;;21.87;11.77;;;;;;;;;;5043679;28;20396;-69
2022/06/10 00:51:48;;;;;;;22.10;12.17;;;;;;;;;;5043298;28;20110;-69
2022/06/10 00:54:23;;;;;;;26.93;12.97;;;;;;;;;;5038284;28;20032;-69
2022/06/10 00:56:50;;;;;;;29.90;13.23;;;;;;;;;;5048021;28;20013;-70
2022/06/10 00:59:22;;;;;;;22.63;12.50;;;;;;;;;;5046780;28;20083;-70
2022/06/10 01:01:49;;;;;;;19.33;11.85;;;;;;;;;;5037853;28;20558;-70
2022/06/10 01:04:14;;;;;;;24.77;10.83;;;;;;;;;;5044841;28;20028;-70
2022/06/10 01:06:39;;;;;;;22.77;12.67;;;;;;;;;;5041544;28;20025;-69
2022/06/10 01:09:05;;;;;;;24.87;14.90;;;;;;;;;;5037299;28;20021;-70
2022/06/10 01:11:56;;;;;;;35.33;16.43;;;;;;;;;;5040250;28;20049;-70
2022/06/10 01:14:28;;;;;;;25.10;13.32;;;;;;;;;;5046279;28;20107;-70
2022/06/10 01:17:12;;;;;;;20.73;11.35;;;;;;;;;;5035538;28;20113;-70
2022/06/10 01:19:54;;;;;;;22.27;12.60;;;;;;;;;;5040975;28;20040;-70
2022/06/10 01:22:28;;;;;;;29.35;14.13;;;;;;;;;;5038699;28;20017;-70
2022/06/10 01:25:06;;;;;;;30.50;14.53;;;;;;;;;;5040531;28;20029;-70
2022/06/10 01:27:49;;;;;;;29.27;15.83;;;;;;;;;;5041703;28;20393;-69
2022/06/10 01:30:15;;;;;;;35.40;15.93;;;;;;;;;;5048412;28;20425;-70
2022/06/10 01:32:47;;;;;;;37.20;17.70;;;;;;;;;;5040064;28;20029;-70
2022/06/10 01:35:21;;;;;;;38.63;17.83;;;;;;;;;;5042449;28;20029;-70
2022/06/10 01:38:04;;;;;;;30.83;15.17;;;;;;;;;;5043617;28;20117;-70
2022/06/10 01:40:56;;;;;;;29.17;15.80;;;;;;;;;;5037234;28;20033;-70
2022/06/10 01:43:33;;;;;;;34.55;17.48;;;;;;;;;;5040268;28;20064;-70
2022/06/10 01:46:24;;;;;;;27.83;15.13;;;;;;;;;;5036373;28;20110;-70
2022/06/10 01:49:10;;;;;;;33.70;16.73;;;;;;;;;;5042094;28;20029;-70
2022/06/10 01:51:54;;;;;;;33.27;15.60;;;;;;;;;;5043779;28;20692;-70
2022/06/10 01:54:19;;;;;;;38.27;17.60;;;;;;;;;;5038079;28;20024;-70
2022/06/10 01:56:47;;;;;;;35.20;18.00;;;;;;;;;;5043005;28;20379;-70
2022/06/10 01:59:12;;;;;;;34.60;17.33;;;;;;;;;;5034815;28;20028;-70
2022/06/10 02:01:39;;;;;;;29.90;15.13;;;;;;;;;;5040667;28;20764;-70
2022/06/10 02:04:15;;;;;;;31.80;15.03;;;;;;;;;;5048073;28;20088;-71
2022/06/10 02:07:01;;;;;;;33.00;15.87;;;;;;;;;;5042614;28;20025;-71
2022/06/10 02:09:30;;;;;;;33.17;15.77;;;;;;;;;;5043003;28;20028;-71
2022/06/10 02:11:59;;;;;;;35.20;16.40;;;;;;;;;;5040052;28;20114;-71
2022/06/10 02:14:27;;;;;;;33.10;15.67;;;;;;;;;;5043959;28;20037;-71
2022/06/10 02:16:53;;;;;;;36.03;16.97;;;;;;;;;;5035357;28;20017;-71
2022/06/10 02:19:30;;;;;;;36.40;17.10;;;;;;;;;;5037473;28;20052;-71
2022/06/10 02:21:59;;;;;;;32.30;16.60;;;;;;;;;;5040069;28;20032;-71
2022/06/10 02:24:34;;;;;;;29.07;15.30;;;;;;;;;;5037591;28;20067;-70
2022/06/10 02:27:01;;;;;;;29.47;14.77;;;;;;;;;;5042122;28;20017;-71
2022/06/10 02:29:31;;;;;;;33.60;15.63;;;;;;;;;;5047935;28;20726;-71
2022/06/10 02:31:58;;;;;;;28.70;13.97;;;;;;;;;;5047011;28;20033;-71
2022/06/10 02:34:23;;;;;;;31.77;15.83;;;;;;;;;;5047040;28;20021;-71
2022/06/10 02:36:54;;;;;;;35.33;16.70;;;;;;;;;;5035227;28;20362;-71
2022/06/10 02:39:28;;;;;;;39.58;18.80;;;;;;;;;;5042926;28;20029;-71
2022/06/10 02:41:59;;;;;;;33.50;16.93;;;;;;;;;;5042245;28;20029;-71
2022/06/10 02:44:25;;;;;;;;;;;;;;;;;;5040667;28;20477;-71
2022/06/10 02:46:57;;;;;;;43.23;19.47;;;;;;;;;;5038749;28;19919;-71
2022/06/10 02:49:23;;;;;;;37.50;17.73;;;;;;;;;;5033259;28;20418;-71
2022/06/10 02:51:49;;;;;;;41.23;18.20;;;;;;;;;;5038317;28;20108;-71
2022/06/10 02:54:16;;;;;;;38.07;17.53;;;;;;;;;;5036635;28;20096;-71
2022/06/10 02:56:42;;;;;;;35.60;16.57;;;;;;;;;;5035512;28;20024;-71
2022/06/10 03:02:01;;;;;;;32.83;16.67;;;;;;;;;;5040541;28;20082;-71
2022/06/10 03:04:29;;;;;;;35.07;16.37;;;;;;;;;;5038189;28;20029;-71
2022/06/10 03:07:01;;;;;;;27.80;15.50;;;;;;;;;;5039050;28;20441;-71
2022/06/10 03:09:26;;;;;;;33.42;15.90;;;;;;;;;;5038142;28;20445;-71
2022/06/10 03:11:54;;;;;;;39.13;17.40;;;;;;;;;;5044856;28;20029;-71
2022/06/10 03:14:28;;;;;;;39.97;18.43;;;;;;;;;;5047059;28;20021;-71
2022/06/10 03:17:00;;;;;;;38.60;19.27;;;;;;;;;;5040275;28;20067;-71
2022/06/10 03:19:47;;;;;;;36.50;17.60;;;;;;;;;;5042383;28;20029;-71
2022/06/10 03:22:23;;;;;;;36.63;19.03;;;;;;;;;;5037696;28;20058;-70
2022/06/10 03:24:54;;;;;;;36.23;18.10;;;;;;;;;;5036178;28;20473;-70
2022/06/10 03:27:26;;;;;;;39.78;17.05;;;;;;;;;;5045734;28;20025;-70
2022/06/10 03:29:52;;;;;;;27.20;14.53;;;;;;;;;;5037728;28;20036;-70
2022/06/10 03:32:17;;;;;;;22.87;14.10;;;;;;;;;;5046351;28;20025;-70
2022/06/10 03:34:51;;;;;;;26.67;13.80;;;;;;;;;;5037071;28;20488;-70
2022/06/10 03:37:17;;;;;;;26.93;14.97;;;;;;;;;;5046072;28;20033;-70
2022/06/10 03:39:48;;;;;;;32.67;16.57;;;;;;;;;;5044030;28;20021;-70
2022/06/10 03:42:15;;;;;;;31.67;17.97;;;;;;;;;;5042707;28;20013;-70
2022/06/10 03:44:40;;;;;;;31.83;18.30;;;;;;;;;;5043641;28;20017;-70
2022/06/10 03:47:07;;;;;;;29.90;17.27;;;;;;;;;;5039854;28;20026;-70
2022/06/10 03:49:40;;;;;;;29.63;15.57;;;;;;;;;;5048271;28;20013;-70
2022/06/10 03:52:05;;;;;;;23.20;13.47;;;;;;;;;;5044844;28;20025;-70
2022/06/10 03:54:30;;;;;;;28.93;15.00;;;;;;;;;;5049718;28;20048;-70
2022/06/10 03:56:56;;;;;;;23.73;14.33;;;;;;;;;;5047897;28;20064;-71
2022/06/10 03:59:21;;;;;;;24.13;14.63;;;;;;;;;;5047070;28;20021;-71
2022/06/10 04:01:46;;;;;;;27.33;14.20;;;;;;;;;;5039703;28;20030;-70
2022/06/10 04:04:12;;;;;;;21.87;12.03;;;;;;;;;;5044597;28;20864;-70
2022/06/10 04:06:37;;;;;;;18.87;10.33;;;;;;;;;;5045129;28;20108;-70
2022/06/10 04:09:03;;;;;;;13.90;8.33;;;;;;;;;;5042444;28;20029;-70
2022/06/10 04:11:28;;;;;;;17.07;7.37;;;;;;;;;;5048482;28;20060;-70
2022/06/10 04:13:53;;;;;;;13.33;5.80;;;;;;;;;;5040748;28;20095;-71
2022/06/10 04:16:18;;;;;;;13.70;5.17;;;;;;;;;;5045970;28;20043;-71
2022/06/10 04:18:44;;;;;;;11.43;4.60;;;;;;;;;;5044391;28;20108;-71
2022/06/10 04:21:09;;;;;;;11.33;4.60;;;;;;;;;;5042769;28;20078;-71
2022/06/10 04:23:34;;;;;;;7.93;4.00;;;;;;;;;;5044839;28;20043;-71
2022/06/10 04:25:59;;;;;;;12.23;4.03;;;;;;;;;;5045878;28;20025;-71
2022/06/10 04:28:25;;;;;;;10.77;3.87;;;;;;;;;;5047003;28;20017;-71
2022/06/10 04:30:51;;;;;;;11.03;3.97;;;;;;;;;;5050657;28;20506;-71
2022/06/10 04:33:17;;;;;;;10.13;4.23;;;;;;;;;;5043840;28;20033;-71
2022/06/10 04:35:43;;;;;;;9.63;4.47;;;;;;;;;;5043431;28;20491;-72
2022/06/10 04:38:08;;;;;;;8.03;3.93;;;;;;;;;;5045085;28;20108;-72
2022/06/10 04:40:35;;;;;;;9.87;4.30;;;;;;;;;;5040053;28;20121;-71
2022/06/10 04:43:01;;;;;;;14.23;4.20;;;;;;;;;;5041515;28;20082;-71
2022/06/10 04:45:28;;;;;;;10.10;3.60;;;;;;;;;;5043933;28;20029;-71
2022/06/10 04:47:54;;;;;;;9.57;3.53;;;;;;;;;;5050332;28;20461;-72
2022/06/10 04:50:20;;;;;;;10.30;3.30;;;;;;;;;;5048962;28;20029;-72
2022/06/10 04:52:45;;;;;;;8.85;3.15;;;;;;;;;;5045063;28;20094;-72
2022/06/10 04:55:10;;;;;;;9.73;3.05;;;;;;;;;;5034415;28;20040;-70
2022/06/10 04:57:36;;;;;;;8.38;2.90;;;;;;;;;;5039697;28;20471;-70
2022/06/10 05:00:04;;;;;;;12.95;3.67;;;;;;;;;;5037574;28;20033;-70
2022/06/10 05:02:29;;;;;;;9.15;3.13;;;;;;;;;;5040988;28;20433;-70
2022/06/10 05:04:54;;;;;;;9.57;2.90;;;;;;;;;;5051495;28;20082;-71
2022/06/10 05:07:19;;;;;;;7.55;3.22;;;;;;;;;;5042008;28;20496;-71
2022/06/10 05:09:45;;;;;;;10.07;3.08;;;;;;;;;;5043417;28;20028;-71
2022/06/10 05:12:10;;;;;;;10.02;2.90;;;;;;;;;;5041368;28;20372;-72
2022/06/10 05:14:35;;;;;;;8.85;2.60;;;;;;;;;;5040941;28;20025;-71
2022/06/10 05:17:02;;;;;;;8.55;2.50;;;;;;;;;;5037475;28;20039;-71
2022/06/10 05:19:29;;;;;;;8.77;2.65;;;;;;;;;;5033910;28;20487;-71
2022/06/10 05:21:55;;;;;;;9.18;2.60;;;;;;;;;;5045543;28;20509;-71
2022/06/10 05:24:20;;;;;;;8.63;2.70;;;;;;;;;;5054046;28;20025;-71
2022/06/10 05:26:45;;;;;;;8.40;2.60;;;;;;;;;;5047366;28;20436;-71
2022/06/10 05:29:10;;;;;;;11.38;2.83;;;;;;;;;;5051538;28;20013;-71
2022/06/10 05:31:36;;;;;;;7.80;2.40;;;;;;;;;;5042973;28;20025;-71
2022/06/10 05:36:44;;;;;;;9.63;2.70;;;;;;;;;;5043236;28;20039;-71
2022/06/10 05:39:10;;;;;;;6.68;2.60;;;;;;;;;;5052691;28;20470;-72
2022/06/10 05:44:19;;;;;;;8.77;2.90;;;;;;;;;;5044034;28;20024;-71
2022/06/10 05:46:44;;;;;;;8.35;2.40;;;;;;;;;;5043873;28;20108;-71
2022/06/10 05:49:10;;;;;;;9.32;2.72;;;;;;;;;;5051303;28;20695;-71
2022/06/10 05:51:36;;;;;;;8.75;2.70;;;;;;;;;;5049161;28;20029;-71
2022/06/10 05:54:01;;;;;;;7.55;2.60;;;;;;;;;;5050269;28;20028;-71
2022/06/10 05:56:26;;;;;;;6.82;2.60;;;;;;;;;;5039454;28;20029;-72
2022/06/10 05:58:51;;;;;;;7.85;2.65;;;;;;;;;;5045706;28;20040;-71
2022/06/10 06:01:17;;;;;;;7.43;2.67;;;;;;;;;;5051848;28;20746;-72
2022/06/10 06:03:42;;;;;;;10.52;2.30;;;;;;;;;;5051792;28;20449;-72
2022/06/10 06:06:08;;;;;;;10.35;2.80;;;;;;;;;;5051263;28;20032;-72
2022/06/10 06:08:33;;;;;;;7.43;2.80;;;;;;;;;;5052713;28;20025;-71
2022/06/10 06:10:59;;;;;;;10.48;3.13;;;;;;;;;;5053049;28;20082;-71
2022/06/10 06:13:24;;;;;;;8.15;2.97;;;;;;;;;;5050335;28;20110;-71
2022/06/10 06:15:49;;;;;;;7.22;3.25;;;;;;;;;;5052508;28;20021;-71
2022/06/10 06:18:14;;;;;;;8.23;3.20;;;;;;;;;;5051695;28;20043;-72
2022/06/10 06:20:40;;;;;;;11.25;2.88;;;;;;;;;;5052684;28;20031;-72
2022/06/10 06:23:05;;;;;;;9.05;3.20;;;;;;;;;;5052128;28;20021;-72
2022/06/10 06:25:31;;;;;;;10.35;3.03;;;;;;;;;;5052534;28;20027;-73
2022/06/10 06:27:56;;;;;;;12.32;3.67;;;;;;;;;;5051953;28;20017;-72
2022/06/10 06:30:26;;;;;;;8.63;3.70;;;;;;;;;;5052431;28;20021;-72
2022/06/10 06:32:51;;;;;;;8.38;3.05;;;;;;;;;;5049525;28;20107;-73
2022/06/10 06:35:17;;;;;;;8.35;3.13;;;;;;;;;;5052525;28;20583;-71
2022/06/10 06:37:42;;;;;;;7.82;3.28;;;;;;;;;;5052371;28;20477;-70
2022/06/10 06:40:09;;;;;;;10.38;3.75;;;;;;;;;;5051284;28;20073;-70
2022/06/10 06:42:36;;;;;;;6.15;3.35;;;;;;;;;;5051474;28;20021;-70
2022/06/10 06:45:01;;;;;;;9.75;3.72;;;;;;;;;;5051817;28;20100;-71
2022/06/10 06:47:27;;;;;;;10.23;3.90;;;;;;;;;;5052012;28;20108;-71
2022/06/10 06:49:52;;;;;;;14.13;4.40;;;;;;;;;;5052121;28;20120;-71
2022/06/10 06:52:17;;;;;;;9.65;3.85;;;;;;;;;;5054163;28;20134;-70
2022/06/10 06:54:42;;;;;;;8.93;4.28;;;;;;;;;;5072268;28;20357;-71
2022/06/10 06:57:09;;;;;;;12.23;4.47;;;;;;;;;;5071999;28;20469;-71
2022/06/10 06:59:34;;;;;;;13.98;4.60;;;;;;;;;;5051402;28;20029;-71
2022/06/10 07:01:59;;;;;;;11.70;4.28;;;;;;;;;;5051722;28;20033;-71
2022/06/10 07:04:25;;;;;;;11.30;3.78;;;;;;;;;;5051313;28;20431;-71
2022/06/10 07:06:50;;;;;;;11.23;4.10;;;;;;;;;;5051510;28;20495;-71
2022/06/10 07:09:16;;;;;;;8.18;4.00;;;;;;;;;;5052111;28;20029;-71
2022/06/10 07:11:41;;;;;;;8.50;4.25;;;;;;;;;;5051495;28;20028;-71
2022/06/10 07:14:07;;;;;;;11.32;4.22;;;;;;;;;;5046893;28;20064;-71
2022/06/10 07:16:32;;;;;;;9.45;4.07;;;;;;;;;;5048198;28;20017;-71
2022/06/10 07:18:57;;;;;;;11.90;4.00;;;;;;;;;;5051732;28;20103;-71
2022/06/10 07:21:23;;;;;;;11.32;4.05;;;;;;;;;;5050586;28;20464;-71
2022/06/10 07:23:48;;;;;;;8.27;4.20;;;;;;;;;;5051657;28;20073;-71
2022/06/10 07:26:14;;;;;;;10.43;3.88;;;;;;;;;;5051896;28;20016;-71
2022/06/10 07:28:39;;;;;;;8.75;3.42;;;;;;;;;;5049584;28;20028;-71
2022/06/10 07:31:05;;;;;;;10.18;3.63;;;;;;;;;;5049680;28;20457;-71
2022/06/10 07:33:30;;;;;;;8.63;4.00;;;;;;;;;;5051642;28;20074;-72
2022/06/10 07:35:56;;;;;;;8.73;3.50;;;;;;;;;;5050235;28;20096;-72
2022/06/10 07:38:22;;;;;;;9.18;3.75;;;;;;;;;;5034519;28;20026;-72
2022/06/10 07:43:32;;;;;;;9.70;3.67;;;;;;;;;;5051038;28;20070;-72
2022/06/10 07:45:58;;;;;;;6.53;2.80;;;;;;;;;;5049967;28;20100;-72
2022/06/10 07:48:23;;;;;;;8.60;3.20;;;;;;;;;;5051233;28;20530;-72
2022/06/10 07:50:49;;;;;;;8.07;3.25;;;;;;;;;;5051125;28;20112;-71
2022/06/10 07:53:16;;;;;;;10.35;3.78;;;;;;;;;;5051584;28;20021;-71
2022/06/10 07:55:43;;;;;;;13.35;3.33;;;;;;;;;;5051270;28;20032;-71
2022/06/10 07:58:10;;;;;;;8.73;3.10;;;;;;;;;;5051091;28;20079;-71
2022/06/10 08:00:36;;;;;;;6.85;2.90;;;;;;;;;;5033217;28;20082;-71
2022/06/10 08:03:01;;;;;;;7.97;3.10;;;;;;;;;;5045276;28;20025;-71
2022/06/10 08:05:27;;;;;;;9.15;3.13;;;;;;;;;;5032067;28;20021;-71
2022/06/10 08:07:52;;;;;;;10.93;3.30;;;;;;;;;;5041764;28;20040;-71
2022/06/10 08:10:22;;;;;;;9.05;3.10;;;;;;;;;;5049693;28;20025;-71
2022/06/10 08:12:47;;;;;;;10.68;3.13;;;;;;;;;;5050714;28;20029;-71
2022/06/10 08:15:14;;;;;;;8.75;3.17;;;;;;;;;;5050615;28;20091;-72
2022/06/10 08:17:39;;;;;;;9.43;3.10;;;;;;;;;;5051003;28;20017;-71
2022/06/10 08:20:05;;;;;;;7.53;2.90;;;;;;;;;;5050932;28;20457;-71
2022/06/10 08:22:32;;;;;;;11.15;3.35;;;;;;;;;;5050304;28;20083;-71
2022/06/10 08:24:58;;;;;;;11.63;3.08;;;;;;;;;;5050795;28;20059;-71
2022/06/10 08:27:24;;;;;;;10.85;3.17;;;;;;;;;;5050282;28;20045;-71
2022/06/10 08:29:49;;;;;;;5.50;1.77;;;;;;;;;;5049592;28;20476;-71
2022/06/10 08:32:15;;;;;;;7.05;1.90;;;;;;;;;;5050861;28;20024;-71
2022/06/10 08:34:42;;;;;;;8.27;1.80;;;;;;;;;;5053789;28;20074;-71
2022/06/10 08:37:08;;;;;;;7.07;1.40;;;;;;;;;;5054595;28;20437;-71
2022/06/10 08:39:33;;;;;;;6.20;1.40;;;;;;;;;;5055050;28;20532;-70
2022/06/10 08:42:11;;;;;;;9.93;1.80;;;;;;;;;;5054093;28;20036;-70
2022/06/10 08:44:36;;;;;;;7.90;1.67;;;;;;;;;;5053651;28;20017;-70
2022/06/10 08:47:10;;;;;;;6.50;1.50;;;;;;;;;;5054352;28;20158;-70
2022/06/10 08:49:54;;;;;;;7.25;1.60;;;;;;;;;;5053774;28;20036;-70
2022/06/10 08:52:31;;;;;;;6.82;1.55;;;;;;;;;;5056211;28;20104;-70
2022/06/10 08:54:57;;;;;;;5.93;1.25;;;;;;;;;;5044643;28;20854;-71
2022/06/10 08:57:36;;;;;;;9.75;1.58;;;;;;;;;;5054275;28;20124;-70
2022/06/10 09:00:04;;;;;;;6.63;1.35;;;;;;;;;;5053311;28;20103;-71
2022/06/10 09:02:33;;;;;;;8.10;1.50;;;;;;;;;;5054052;28;20036;-73
2022/06/10 09:05:06;;;;;;;5.88;1.35;;;;;;;;;;5053969;28;20013;-72
2022/06/10 09:07:40;;;;;;;5.00;1.00;;;;;;;;;;5053848;28;20021;-72
2022/06/10 09:10:07;;;;;;;3.60;1.20;;;;;;;;;;5054159;28;20048;-72
2022/06/10 09:12:51;;;;;;;7.13;2.05;;;;;;;;;;5053318;28;20024;-72
2022/06/10 09:15:18;;;;;;;6.80;1.80;;;;;;;;;;5051394;28;20089;-72
2022/06/10 09:17:47;;;;;;;6.85;2.03;;;;;;;;;;5056240;28;20036;-70
2022/06/10 09:20:28;;;;;;;7.95;2.17;;;;;;;;;;5054832;28;20029;-70
2022/06/10 09:22:58;;;;;;;6.68;2.10;;;;;;;;;;5053576;28;20055;-70
2022/06/10 09:25:24;;;;;;;9.52;2.53;;;;;;;;;;5053552;28;20021;-70
2022/06/10 09:27:51;;;;;;;5.75;2.00;;;;;;;;;;5053647;28;20021;-70
2022/06/10 09:30:18;;;;;;;8.20;2.53;;;;;;;;;;5052269;28;20765;-71
2022/06/10 09:32:58;;;;;;;10.00;3.15;;;;;;;;;;5035852;28;20117;-71
2022/06/10 09:35:28;;;;;;;7.28;2.75;;;;;;;;;;5052137;28;20029;-70
2022/06/10 09:38:02;;;;;;;10.68;2.80;;;;;;;;;;5053147;28;20028;-71
2022/06/10 09:40:37;;;;;;;8.27;2.17;;;;;;;;;;5052286;28;20035;-71
2022/06/10 09:43:09;;;;;;;13.35;2.97;;;;;;;;;;5049756;28;20082;-71
2022/06/10 09:45:53;;;;;;;5.32;1.75;;;;;;;;;;5051623;28;20475;-71
2022/06/10 09:48:24;;;;;;;7.00;2.20;;;;;;;;;;5052832;28;20079;-70
2022/06/10 09:50:54;;;;;;;8.73;2.05;;;;;;;;;;5033096;28;20025;-70
2022/06/10 09:53:39;;;;;;;7.80;2.08;;;;;;;;;;5042843;28;20029;-71
2022/06/10 09:56:04;;;;;;;7.57;2.40;;;;;;;;;;5031139;28;20040;-70
2022/06/10 09:58:37;;;;;;;5.20;1.67;;;;;;;;;;5032941;28;20026;-71
2022/06/10 10:01:21;;;;;;;12.30;3.00;;;;;;;;;;5043109;28;20040;-70
2022/06/10 10:04:04;;;;;;;6.68;2.30;;;;;;;;;;5051230;28;20443;-71
2022/06/10 10:06:36;;;;;;;10.27;2.50;;;;;;;;;;5052712;28;20120;-71
2022/06/10 10:09:23;;;;;;;9.40;2.40;;;;;;;;;;5052696;28;20036;-71
2022/06/10 10:11:54;;;;;;;5.75;2.00;;;;;;;;;;5052314;28;20079;-71
2022/06/10 10:14:21;;;;;;;7.63;2.10;;;;;;;;;;5051448;28;20119;-71
2022/06/10 10:16:58;;;;;;;7.32;1.95;;;;;;;;;;5052316;28;20029;-71
2022/06/10 10:19:30;;;;;;;11.55;3.22;;;;;;;;;;5051461;28;20040;-73
2022/06/10 10:21:56;;;;;;;7.88;2.50;;;;;;;;;;5052685;28;20468;-72
2022/06/10 10:24:24;;;;;;;9.30;2.60;;;;;;;;;;5052145;28;20055;-72
2022/06/10 10:26:51;;;;;;;8.18;2.60;;;;;;;;;;5051735;28;20084;-71
2022/06/10 10:29:18;;;;;;;8.43;2.05;;;;;;;;;;5049646;28;20029;-71
2022/06/10 10:32:06;;;;;;;7.55;2.10;;;;;;;;;;5052273;28;20036;-71
2022/06/10 10:34:36;;;;;;;9.40;2.55;;;;;;;;;;5043424;28;20037;-71
2022/06/10 10:37:03;;;;;;;7.15;2.40;;;;;;;;;;5052078;28;20389;-72
2022/06/10 10:39:28;;;;;;;9.60;2.58;;;;;;;;;;5051069;28;20123;-72
2022/06/10 10:41:55;;;;;;;9.05;2.50;;;;;;;;;;5051850;28;20040;-72
2022/06/10 10:44:26;;;;;;;10.23;2.58;;;;;;;;;;5050273;28;20033;-72
2022/06/10 10:47:11;;;;;;;5.53;2.08;;;;;;;;;;5052724;28;20025;-72
2022/06/10 10:49:40;;;;;;;9.30;2.10;;;;;;;;;;5036894;28;20029;-71
2022/06/10 10:52:12;;;;;;;7.55;2.50;;;;;;;;;;5051630;28;20025;-72
2022/06/10 10:54:41;;;;;;;8.55;2.85;;;;;;;;;;5051597;28;20069;-72
2022/06/10 10:57:14;;;;;;;8.07;2.50;;;;;;;;;;5050894;28;20112;-72
2022/06/10 10:59:40;;;;;;;8.13;2.60;;;;;;;;;;5049808;28;20024;-72
2022/06/10 11:02:24;;;;;;;7.13;2.20;;;;;;;;;;5051337;28;20031;-72
2022/06/10 11:04:49;;;;;;;8.98;2.25;;;;;;;;;;5051302;28;20028;-72
2022/06/10 11:07:16;;;;;;;8.38;2.85;;;;;;;;;;5051123;28;20017;-72
2022/06/10 11:09:52;;;;;;;8.50;2.20;;;;;;;;;;5050542;28;20025;-72
2022/06/10 11:12:20;;;;;;;8.40;2.30;;;;;;;;;;5050994;28;20032;-71
2022/06/10 11:15:03;;;;;;;6.22;2.25;;;;;;;;;;5051483;28;20033;-72
2022/06/10 11:17:30;;;;;;;6.63;2.60;;;;;;;;;;5051812;28;20037;-72
2022/06/10 11:19:58;;;;;;;7.75;2.40;;;;;;;;;;5050976;28;20021;-72
2022/06/10 11:22:31;;;;;;;9.05;2.97;;;;;;;;;;5051422;28;20032;-72
2022/06/10 11:25:02;;;;;;;10.15;2.50;;;;;;;;;;5052025;28;20021;-71
2022/06/10 11:27:28;;;;;;;10.95;2.35;;;;;;;;;;5050511;28;20028;-72
2022/06/10 11:30:01;;;;;;;15.98;7.00;;;;;;;;;;5051705;28;20108;-71
2022/06/10 11:32:33;;;;;;;8.48;2.40;;;;;;;;;;5048483;28;20025;-72
2022/06/10 11:35:00;;;;;;;6.35;2.30;;;;;;;;;;5050660;28;20029;-72
2022/06/10 11:37:32;;;;;;;11.60;2.20;;;;;;;;;;5050777;28;20112;-72
2022/06/10 11:40:02;;;;;;;8.18;2.40;;;;;;;;;;5050612;28;20107;-72
2022/06/10 11:42:31;;;;;;;7.25;2.05;;;;;;;;;;5050357;28;20601;-72
2022/06/10 11:45:01;;;;;;;5.97;1.77;;;;;;;;;;5050792;28;20025;-72
2022/06/10 11:47:56;;;;;;;9.00;2.60;;;;;;;;;;5051135;28;20023;-72
2022/06/10 11:50:31;;;;;;;8.27;2.10;;;;;;;;;;5035562;28;20569;-72
2022/06/10 11:52:59;;;;;;;5.57;1.90;;;;;;;;;;5050907;28;20032;-72
2022/06/10 11:55:38;;;;;;;5.63;1.60;;;;;;;;;;5050842;28;20082;-72
2022/06/10 12:01:08;;;;;;;6.05;1.70;;;;;;;;;;5050407;28;20086;-72
2022/06/10 12:03:33;;;;;;;;;;;;;;;;;;5048397;28;20061;-72
2022/06/10 12:05:59;;;;;;;4.28;1.50;;;;;;;;;;5050362;28;19908;-72
2022/06/10 12:08:24;;;;;;;6.85;1.58;;;;;;;;;;5052754;28;20061;-72
2022/06/10 12:11:08;;;;;;;7.85;1.85;;;;;;;;;;5054505;28;20021;-72
2022/06/10 12:13:37;;;;;;;6.18;1.70;;;;;;;;;;5054055;28;20496;-72
2022/06/10 12:16:03;;;;;;;8.43;2.10;;;;;;;;;;5054204;28;20373;-72
2022/06/10 12:18:31;;;;;;;9.40;2.00;;;;;;;;;;5054815;28;20048;-72
2022/06/10 12:21:01;;;;;;;8.75;2.15;;;;;;;;;;5054050;28;20532;-72
2022/06/10 12:23:30;;;;;;;7.53;1.90;;;;;;;;;;5054555;28;20056;-72
2022/06/10 12:26:01;;;;;;;5.45;2.00;;;;;;;;;;5054231;28;20441;-72
2022/06/10 12:28:45;;;;;;;6.95;1.90;;;;;;;;;;5052311;28;20021;-72
2022/06/10 12:31:10;;;;;;;7.85;2.00;;;;;;;;;;5053921;28;20063;-72
2022/06/10 12:33:36;;;;;;;7.55;2.20;;;;;;;;;;5052710;28;20089;-72
2022/06/10 12:36:02;;;;;;;6.30;2.20;;;;;;;;;;5053984;28;20564;-72
2022/06/10 12:38:30;;;;;;;7.38;2.20;;;;;;;;;;5052909;28;20037;-72
2022/06/10 12:41:17;;;;;;;9.70;2.10;;;;;;;;;;5054185;28;20020;-72
2022/06/10 12:43:44;;;;;;;7.40;2.20;;;;;;;;;;5053084;28;20104;-72
2022/06/10 12:46:21;;;;;;;5.15;2.17;;;;;;;;;;5054023;28;20503;-72
2022/06/10 12:48:47;;;;;;;8.10;2.00;;;;;;;;;;5053657;28;20017;-72
2022/06/10 12:51:12;;;;;;;8.98;2.33;;;;;;;;;;5053169;28;20471;-72
2022/06/10 12:53:51;;;;;;;9.35;2.58;;;;;;;;;;5053806;28;20388;-72
2022/06/10 12:56:16;;;;;;;8.48;2.45;;;;;;;;;;5053565;28;20104;-72
2022/06/10 12:58:43;;;;;;;7.05;2.28;;;;;;;;;;5052682;28;20132;-72
2022/06/10 13:01:11;;;;;;;9.80;3.00;;;;;;;;;;5053522;28;20047;-72
2022/06/10 13:03:37;;;;;;;10.25;2.88;;;;;;;;;;5053648;28;20025;-72
2022/06/10 13:06:05;;;;;;;8.30;2.80;;;;;;;;;;5053293;28;20033;-72
2022/06/10 13:08:31;;;;;;;9.38;2.78;;;;;;;;;;5053830;28;20038;-72
2022/06/10 13:10:57;;;;;;;7.68;2.60;;;;;;;;;;5051680;28;20365;-72
2022/06/10 13:13:23;;;;;;;8.30;2.92;;;;;;;;;;5053472;28;20032;-72
2022/06/10 13:15:53;;;;;;;8.25;2.70;;;;;;;;;;5053232;28;20025;-72
2022/06/10 13:18:25;;;;;;;9.35;2.72;;;;;;;;;;5052839;28;20017;-72
2022/06/10 13:20:50;;;;;;;6.88;2.75;;;;;;;;;;5052850;28;20036;-72
2022/06/10 13:23:23;;;;;;;8.90;2.72;;;;;;;;;;5053194;28;20433;-72
2022/06/10 13:25:51;;;;;;;9.75;2.72;;;;;;;;;;5049982;28;20455;-72
2022/06/10 13:28:22;;;;;;;8.90;2.60;;;;;;;;;;5052913;28;20122;-72
2022/06/10 13:30:49;;;;;;;8.57;2.60;;;;;;;;;;5052228;28;20358;-72
2022/06/10 13:33:16;;;;;;;7.45;2.20;;;;;;;;;;5053396;28;20021;-72
2022/06/10 13:35:44;;;;;;;8.68;2.30;;;;;;;;;;5052685;28;20507;-72
2022/06/10 13:38:14;;;;;;;8.95;2.60;;;;;;;;;;5045404;28;20522;-72
2022/06/10 13:40:40;;;;;;;6.72;2.40;;;;;;;;;;5048448;28;20102;-72
2022/06/10 13:43:05;;;;;;;9.90;2.70;;;;;;;;;;5050222;28;20028;-72
2022/06/10 13:45:37;;;;;;;8.95;2.78;;;;;;;;;;5052836;28;20033;-72
2022/06/10 13:48:09;;;;;;;9.40;2.70;;;;;;;;;;5052524;28;20021;-72
2022/06/10 13:53:07;;;;;;;10.23;3.50;;;;;;;;;;5044730;28;20436;-72
2022/06/10 13:55:35;;;;;;;8.60;3.08;;;;;;;;;;5052109;28;20103;-72
2022/06/10 13:58:05;;;;;;;12.30;3.75;;;;;;;;;;5052857;28;20029;-72
2022/06/10 14:00:32;;;;;;;11.15;2.95;;;;;;;;;;5052827;28;20032;-72
2022/06/10 14:02:58;;;;;;;12.50;2.88;;;;;;;;;;5052618;28;20104;-72
2022/06/10 14:05:25;;;;;;;8.48;2.50;;;;;;;;;;5052502;28;20020;-73
2022/06/10 14:07:52;;;;;;;8.70;2.55;;;;;;;;;;5052244;28;20017;-73
2022/06/10 14:10:22;;;;;;;8.00;2.47;;;;;;;;;;5048684;28;20110;-73
2022/06/10 14:13:03;;;;;;;9.70;2.50;;;;;;;;;;5050197;28;20017;-72
2022/06/10 14:15:31;;;;;;;7.68;2.13;;;;;;;;;;5051517;28;20120;-72
2022/06/10 14:18:01;;;;;;;9.00;1.92;;;;;;;;;;5051301;28;20054;-72
2022/06/10 14:20:28;;;;;;;10.13;2.47;;;;;;;;;;5052178;28;20100;-72
2022/06/10 14:23:04;;;;;;;9.82;2.50;;;;;;;;;;5052085;28;20020;-72
2022/06/10 14:25:30;;;;;;;7.57;2.40;;;;;;;;;;5050933;28;20024;-72
2022/06/10 14:28:08;;;;;;;7.07;2.30;;;;;;;;;;5049612;28;20826;-72
2022/06/10 14:30:33;;;;;;;8.20;2.38;;;;;;;;;;5049485;28;20134;-72
2022/06/10 14:32:59;;;;;;;7.10;2.10;;;;;;;;;;5052065;28;20040;-72
2022/06/10 14:35:25;;;;;;;14.65;2.95;;;;;;;;;;5051728;28;20036;-72
2022/06/10 14:37:59;;;;;;;14.65;2.90;;;;;;;;;;5050528;28;20028;-72
2022/06/10 14:40:24;;;;;;;8.45;2.33;;;;;;;;;;5051071;28;20056;-72
2022/06/10 14:43:15;;;;;;;6.35;1.98;;;;;;;;;;5051563;28;20055;-72
2022/06/10 14:45:41;;;;;;;7.83;2.03;;;;;;;;;;5033479;28;20611;-72
2022/06/10 14:48:06;;;;;;;7.72;1.77;;;;;;;;;;5047568;28;20303;-72
2022/06/10 14:50:33;;;;;;;9.65;1.98;;;;;;;;;;5040663;28;20477;-72
2022/06/10 14:52:58;;;;;;;7.28;1.40;;;;;;;;;;5047507;28;20090;-72
2022/06/10 14:55:34;;;;;;;4.60;1.10;;;;;;;;;;5044903;28;20017;-72
2022/06/10 14:58:01;;;;;;;7.30;1.33;;;;;;;;;;5050040;28;20110;-72
2022/06/10 15:00:28;;;;;;;7.90;1.90;;;;;;;;;;5035491;28;20025;-72